LGMT/MJT METAR and TAF weather

Enter ICAO airport designator
Station Type Date Time Source
LGMT METAR 2019/02/22 19:50 UTC NOAA

LGMT 221950Z 24004KT 9999 SCT020 10/03 Q1015


Station Type Date Time Source
LGMT Decoded METAR 2019/02/22 19:50 UTC NOAA

Mytilini Airport , Greece (LGMT) 39-04N 026-36E 5M
Feb 22, 2019 - 02:50 PM EST / 2019.02.22 1950 UTC
Wind: from the WSW (240 degrees) at 5 MPH (4 KT):0
Visibility: greater than 7 mile(s):0
Sky conditions: partly cloudy
Temperature: 50 F (10 C)
Dew Point: 37 F (3 C)
Relative Humidity: 61%
Pressure (altimeter): 29.97 in. Hg (1015 hPa)
ob: LGMT 221950Z 24004KT 9999 SCT020 10/03 Q1015
cycle: 20

Station Type Date Time Source
LGMT TAF 2012/09/21 03:06 UTC NOAA

TAF LGMT 210200Z 2103/2115 VRB05KT 9999 SCT020
BECMG 2103/2105 30015KT PROB30
TEMPO 2103/2106 7000 RA SCT018 BKN030
BECMG 2107/2109 29012KT


Example: see airport list